| time (UTC) | temp F | wind direction | speed MPH | gust MPH | rain 1hr in | rain 24hr in | rain mn in | humidity % | barometer mb |
| 20260510081537 | 70 | 177 | 2.0 | 6.0 | 0.00 | 0.00 | 0.00 | 87 | 1012.3 |
| 20260510080035 | 70 | 172 | 2.0 | 5.0 | 0.00 | 0.00 | 0.00 | 86 | 1012.3 |
| 20260510074541 | 71 | 190 | 3.0 | 6.0 | 0.00 | 0.00 | 0.00 | 85 | 1012.3 |
| 20260510073048 | 71 | 171 | 3.0 | 9.0 | 0.00 | 0.00 | 0.00 | 85 | 1012.4 |
| 20260510071537 | 71 | 178 | 2.0 | 10.0 | 0.00 | 0.00 | 0.00 | 84 | 1012.3 |
| 20260510070038 | 72 | 190 | 3.0 | 9.0 | 0.00 | 0.00 | 0.00 | 83 | 1012.3 |
| 20260510064544 | 72 | 202 | 3.0 | 8.0 | 0.00 | 0.00 | 0.00 | 82 | 1012.4 |
| 20260510063035 | 73 | 165 | 2.0 | 6.0 | 0.00 | 0.00 | 0.00 | 81 | 1012.4 |
| 20260510061531 | 73 | 147 | 2.0 | 8.0 | 0.00 | 0.00 | 0.00 | 81 | 1012.3 |
| 20260510060040 | 72 | 173 | 2.0 | 6.0 | 0.00 | 0.00 | 0.00 | 85 | 1012.4 |
| 20260510054536 | 67 | 0 | 0.0 | 0.0 | 0.00 | 0.00 | 0.00 | 92 | 1012.4 |
| 20260510053039 | 67 | 0 | 0.0 | 0.0 | 0.00 | 0.00 | 0.00 | 90 | 1012.2 |
| 20260510051532 | 68 | 0 | 0.0 | 0.0 | 0.00 | 0.00 | 0.00 | 90 | 1012.1 |
| 20260510050034 | 68 | 0 | 0.0 | 0.0 | 0.00 | 0.00 | 0.00 | 89 | 1012.1 |
| 20260510044532 | 70 | 0 | 0.0 | 0.0 | 0.00 | 0.00 | 0.00 | 87 | 1012.0 |
| 20260510043037 | 71 | 22 | 0.0 | 3.0 | 0.00 | 0.00 | 0.00 | 84 | 1011.9 |
| 20260510041539 | 75 | 0 | 0.0 | 5.0 | 0.00 | 0.00 | 0.00 | 77 | 1011.9 |
| 20260510040036 | 76 | 0 | 1.0 | 7.0 | 0.00 | 0.00 | 0.00 | 76 | 1011.7 |
| 20260510034533 | 77 | 147 | 3.0 | 7.0 | 0.00 | 0.00 | 0.00 | 75 | 1011.5 |
| 20260510033034 | 77 | 163 | 4.0 | 8.0 | 0.00 | 0.00 | 0.00 | 75 | 1011.5 |
| 20260510031540 | 76 | 161 | 2.0 | 5.0 | 0.00 | 0.00 | 0.00 | 77 | 1011.3 |
| 20260510030038 | 73 | 158 | 0.0 | 2.0 | 0.00 | 0.00 | 0.00 | 84 | 1011.1 |
| 20260510024536 | 70 | 0 | 0.0 | 0.0 | 0.00 | 0.00 | 0.00 | 86 | 1011.0 |
| 20260510023041 | 71 | 0 | 0.0 | 0.0 | 0.00 | 0.00 | 0.00 | 85 | 1010.9 |
| 20260510021540 | 72 | 0 | 0.0 | 0.0 | 0.00 | 0.00 | 0.00 | 83 | 1010.7 |
| 20260510020037 | 73 | 0 | 0.0 | 0.0 | 0.00 | 0.00 | 0.00 | 82 | 1010.4 |
| 20260510014545 | 74 | 0 | 0.0 | 0.0 | 0.00 | 0.00 | 0.00 | 78 | 1010.1 |
| 20260510013045 | 75 | 0 | 0.0 | 0.0 | 0.00 | 0.00 | 0.00 | 76 | 1009.9 |
| 20260510011536 | 78 | 0 | 0.0 | 0.0 | 0.00 | 0.00 | 0.00 | 68 | 1009.9 |
| 20260510010040 | 82 | 0 | 0.0 | 2.0 | 0.00 | 0.00 | 0.00 | 59 | 1009.6 |
| 20260510004542 | 83 | 0 | 0.0 | 1.0 | 0.00 | 0.00 | 0.00 | 56 | 1009.4 |
| 20260510003041 | 85 | 159 | 1.0 | 6.0 | 0.00 | 0.00 | 0.00 | 53 | 1009.3 |
| 20260510001538 | 87 | 155 | 1.0 | 5.0 | 0.00 | 0.00 | 0.00 | 51 | 1009.4 |
| 20260510000037 | 87 | 0 | 0.0 | 0.0 | 0.00 | 0.00 | 0.00 | 50 | 1009.3 |
| 20260509234539 | 88 | 0 | 0.0 | 1.0 | 0.00 | 0.00 | 0.00 | 49 | 1009.1 |
| 20260509233041 | 89 | 0 | 2.0 | 6.0 | 0.00 | 0.00 | 0.00 | 47 | 1009.2 |
| 20260509231538 | 89 | 155 | 2.0 | 4.0 | 0.00 | 0.00 | 0.00 | 46 | 1009.2 |
| 20260509230042 | 88 | 0 | 0.0 | 3.0 | 0.00 | 0.00 | 0.00 | 47 | 1009.2 |
| 20260509224539 | 88 | 0 | 0.0 | 4.0 | 0.00 | 0.00 | 0.00 | 46 | 1009.2 |
| 20260509223042 | 89 | 159 | 1.0 | 7.0 | 0.00 | 0.00 | 0.00 | 47 | 1009.4 |
| 20260509221536 | 86 | 0 | 0.0 | 3.0 | 0.00 | 0.00 | 0.00 | 52 | 1009.4 |
| 20260509220038 | 88 | 13 | 2.0 | 5.0 | 0.00 | 0.00 | 0.00 | 48 | 1009.3 |
| 20260509214537 | 88 | 0 | 0.0 | 4.0 | 0.00 | 0.00 | 0.00 | 50 | 1009.4 |
| 20260509213041 | 87 | 0 | 0.0 | 4.0 | 0.00 | 0.00 | 0.00 | 53 | 1009.4 |
| 20260509211546 | 88 | 219 | 0.0 | 6.0 | 0.00 | 0.00 | 0.00 | 50 | 1009.6 |
| 20260509210039 | 88 | 0 | 1.0 | 7.0 | 0.00 | 0.00 | 0.00 | 50 | 1009.9 |
| 20260509204537 | 87 | 179 | 5.0 | 8.0 | 0.00 | 0.00 | 0.00 | 52 | 1010.1 |
| 20260509203037 | 87 | 218 | 1.0 | 4.0 | 0.00 | 0.00 | 0.00 | 52 | 1010.3 |
| 20260509201535 | 88 | 219 | 2.0 | 9.0 | 0.00 | 0.00 | 0.00 | 51 | 1010.6 |
| 20260509200044 | 88 | 254 | 2.0 | 7.0 | 0.00 | 0.00 | 0.00 | 55 | 1010.6 |
| 20260509194538 | 87 | 227 | 6.0 | 12.0 | 0.00 | 0.00 | 0.00 | 54 | 1010.8 |
| 20260509193037 | 86 | 134 | 1.0 | 8.0 | 0.00 | 0.00 | 0.00 | 58 | 1010.9 |
| 20260509191537 | 86 | 242 | 2.0 | 10.0 | 0.00 | 0.00 | 0.00 | 56 | 1011.2 |
| 20260509190052 | 85 | 206 | 5.0 | 9.0 | 0.00 | 0.00 | 0.00 | 62 | 1011.4 |
| 20260509184541 | 85 | 296 | 3.0 | 9.0 | 0.00 | 0.00 | 0.00 | 62 | 1011.6 |
| 20260509183036 | 84 | 187 | 5.0 | 10.0 | 0.00 | 0.00 | 0.00 | 61 | 1011.7 |
| 20260509181544 | 84 | 151 | 1.0 | 9.0 | 0.00 | 0.00 | 0.00 | 65 | 1012.1 |
| 20260509180036 | 83 | 134 | 4.0 | 10.0 | 0.00 | 0.00 | 0.00 | 67 | 1012.2 |
| 20260509174536 | 82 | 157 | 3.0 | 7.0 | 0.00 | 0.00 | 0.00 | 71 | 1012.4 |
| 20260509173045 | 79 | 0 | 0.0 | 5.0 | 0.00 | 0.00 | 0.00 | 76 | 1012.7 |
| 20260509171536 | 81 | 298 | 5.0 | 12.0 | 0.00 | 0.00 | 0.00 | 74 | 1012.7 |
| 20260509170037 | 81 | 170 | 3.0 | 11.0 | 0.00 | 0.00 | 0.00 | 73 | 1012.8 |
| 20260509164537 | 77 | 215 | 2.0 | 6.0 | 0.00 | 0.00 | 0.00 | 78 | 1012.9 |
| 20260509163044 | 79 | 162 | 4.0 | 9.0 | 0.00 | 0.00 | 0.00 | 77 | 1012.9 |
| 20260509161534 | 76 | 183 | 4.0 | 7.0 | 0.00 | 0.00 | 0.00 | 82 | 1012.9 |
| 20260509160041 | 77 | 154 | 5.0 | 9.0 | 0.00 | 0.00 | 0.00 | 81 | 1012.9 |
| 20260509154543 | 75 | 200 | 5.0 | 11.0 | 0.00 | 0.00 | 0.00 | 84 | 1012.9 |
| 20260509153037 | 75 | 150 | 7.0 | 12.0 | 0.00 | 0.00 | 0.00 | 86 | 1012.8 |
| 20260509151535 | 73 | 163 | 3.0 | 8.0 | 0.00 | 0.00 | 0.00 | 90 | 1012.8 |
| 20260509150035 | 72 | 156 | 2.0 | 6.0 | 0.00 | 0.00 | 0.00 | 92 | 1012.6 |
| 20260509144537 | 72 | 163 | 4.0 | 7.0 | 0.00 | 0.00 | 0.00 | 95 | 1012.4 |
| 20260509143048 | 70 | 297 | 2.0 | 4.0 | 0.00 | 0.00 | 0.00 | 96 | 1012.8 |
| 20260509141542 | 70 | 338 | 3.0 | 5.0 | 0.00 | 0.00 | 0.00 | 97 | 1012.9 |
| 20260509140047 | 69 | 352 | 3.0 | 8.0 | 0.00 | 0.00 | 0.00 | 97 | 1012.9 |
| 20260509134537 | 69 | 342 | 3.0 | 4.0 | 0.00 | 0.00 | 0.00 | 97 | 1012.9 |
| 20260509133042 | 69 | 13 | 2.0 | 4.0 | 0.00 | 0.00 | 0.00 | 98 | 1013.0 |
| 20260509131543 | 70 | 349 | 1.0 | 3.0 | 0.00 | 0.00 | 0.00 | 98 | 1012.8 |
| 20260509130044 | 69 | 0 | 0.0 | 2.0 | 0.00 | 0.00 | 0.00 | 98 | 1012.5 |
| 20260509124540 | 69 | 0 | 0.0 | 1.0 | 0.00 | 0.00 | 0.00 | 98 | 1012.5 |
| 20260509123048 | 69 | 349 | 0.0 | 4.0 | 0.00 | 0.00 | 0.00 | 98 | 1012.8 |
| 20260509121535 | 69 | 21 | 3.0 | 6.0 | 0.00 | 0.00 | 0.00 | 98 | 1012.7 |
| 20260509120034 | 68 | 352 | 2.0 | 4.0 | 0.00 | 0.00 | 0.00 | 98 | 1012.8 |
| 20260509114542 | 68 | 352 | 1.0 | 8.0 | 0.00 | 0.00 | 0.00 | 98 | 1012.5 |
| 20260509113052 | 68 | 320 | 4.0 | 10.0 | 0.00 | 0.00 | 0.00 | 98 | 1012.8 |
| 20260509111545 | 68 | 5 | 3.0 | 5.0 | 0.00 | 0.00 | 0.00 | 97 | 1012.5 |
| 20260509110037 | 68 | 0 | 0.0 | 1.0 | 0.00 | 0.00 | 0.00 | 97 | 1012.0 |
| 20260509104535 | 68 | 0 | 0.0 | 2.0 | 0.00 | 0.00 | 0.00 | 97 | 1011.9 |
| 20260509103050 | 68 | 320 | 0.0 | 3.0 | 0.00 | 0.00 | 0.00 | 97 | 1011.7 |
| 20260509101540 | 68 | 320 | 1.0 | 4.0 | 0.00 | 0.00 | 0.00 | 97 | 1011.6 |
| 20260509100053 | 68 | 320 | 0.0 | 1.0 | 0.00 | 0.00 | 0.00 | 97 | 1011.4 |
| 20260509094542 | 68 | 0 | 0.0 | 2.0 | 0.00 | 0.00 | 0.00 | 97 | 1011.3 |
| 20260509093043 | 68 | 320 | 0.0 | 2.0 | 0.00 | 0.00 | 0.00 | 97 | 1011.3 |
| 20260509091537 | 68 | 320 | 0.0 | 2.0 | 0.00 | 0.00 | 0.00 | 97 | 1011.1 |
| 20260509090034 | 68 | 319 | 2.0 | 5.0 | 0.00 | 0.00 | 0.00 | 97 | 1010.9 |
| 20260509084538 | 69 | 326 | 1.0 | 4.0 | 0.00 | 0.00 | 0.00 | 97 | 1011.1 |
| 20260509083042 | 69 | 158 | 2.0 | 5.0 | 0.00 | 0.00 | 0.00 | 97 | 1011.4 |